sensor_id;sensor_type;location;lat;lon;timestamp;pressure;altitude;pressure_sealevel;temperature;humidity
36964;BME280;22878;48.616;35.326;2022-07-18T00:00:36;101192.16;;;14.65;100.00
36964;BME280;22878;48.616;35.326;2022-07-18T00:03:02;101190.50;;;14.61;100.00
36964;BME280;22878;48.616;35.326;2022-07-18T00:05:28;101190.52;;;14.56;100.00
36964;BME280;22878;48.616;35.326;2022-07-18T00:07:54;101191.06;;;14.53;100.00
36964;BME280;22878;48.616;35.326;2022-07-18T00:10:20;101190.48;;;14.51;100.00
36964;BME280;22878;48.616;35.326;2022-07-18T00:12:46;101190.48;;;14.46;100.00
36964;BME280;22878;48.616;35.326;2022-07-18T00:15:12;101186.69;;;14.42;100.00
36964;BME280;22878;48.616;35.326;2022-07-18T00:17:39;101190.75;;;14.39;100.00
36964;BME280;22878;48.616;35.326;2022-07-18T00:20:07;101193.46;;;14.37;100.00
36964;BME280;22878;48.616;35.326;2022-07-18T00:22:34;101203.50;;;14.36;100.00
36964;BME280;22878;48.616;35.326;2022-07-18T00:25:01;101196.45;;;14.33;100.00
36964;BME280;22878;48.616;35.326;2022-07-18T00:27:27;101205.39;;;14.30;100.00
36964;BME280;22878;48.616;35.326;2022-07-18T00:29:53;101201.31;;;14.28;100.00
36964;BME280;22878;48.616;35.326;2022-07-18T00:32:19;101198.05;;;14.26;100.00
36964;BME280;22878;48.616;35.326;2022-07-18T00:34:45;101195.63;;;14.24;100.00
36964;BME280;22878;48.616;35.326;2022-07-18T00:37:11;101198.88;;;14.21;100.00
36964;BME280;22878;48.616;35.326;2022-07-18T00:39:38;101197.52;;;14.19;100.00
36964;BME280;22878;48.616;35.326;2022-07-18T00:42:05;101195.60;;;14.17;100.00
36964;BME280;22878;48.616;35.326;2022-07-18T00:44:31;101193.98;;;14.13;100.00
36964;BME280;22878;48.616;35.326;2022-07-18T00:46:59;101196.96;;;14.09;100.00
36964;BME280;22878;48.616;35.326;2022-07-18T00:49:27;101194.79;;;14.06;100.00
36964;BME280;22878;48.616;35.326;2022-07-18T00:51:54;101200.47;;;14.04;100.00
36964;BME280;22878;48.616;35.326;2022-07-18T00:54:21;101198.84;;;14.01;100.00
36964;BME280;22878;48.616;35.326;2022-07-18T00:56:49;101199.63;;;13.96;100.00
36964;BME280;22878;48.616;35.326;2022-07-18T00:59:16;101203.16;;;13.94;100.00
36964;BME280;22878;48.616;35.326;2022-07-18T01:01:43;101203.67;;;13.91;100.00
36964;BME280;22878;48.616;35.326;2022-07-18T01:04:18;101213.42;;;13.87;100.00
36964;BME280;22878;48.616;35.326;2022-07-18T01:06:45;101215.31;;;13.84;100.00
36964;BME280;22878;48.616;35.326;2022-07-18T01:09:12;101209.07;;;13.81;100.00
36964;BME280;22878;48.616;35.326;2022-07-18T01:11:40;101216.92;;;13.77;100.00
36964;BME280;22878;48.616;35.326;2022-07-18T01:14:07;101218.81;;;13.74;100.00
36964;BME280;22878;48.616;35.326;2022-07-18T01:16:34;101212.84;;;13.75;100.00
36964;BME280;22878;48.616;35.326;2022-07-18T01:19:00;101216.90;;;13.72;100.00
36964;BME280;22878;48.616;35.326;2022-07-18T01:21:26;101217.18;;;13.71;100.00
36964;BME280;22878;48.616;35.326;2022-07-18T01:23:53;101222.04;;;13.69;100.00
36964;BME280;22878;48.616;35.326;2022-07-18T01:26:19;101220.41;;;13.65;100.00
36964;BME280;22878;48.616;35.326;2022-07-18T01:28:46;101227.17;;;13.65;100.00
36964;BME280;22878;48.616;35.326;2022-07-18T01:31:13;101228.22;;;13.61;100.00
36964;BME280;22878;48.616;35.326;2022-07-18T01:33:40;101228.77;;;13.61;100.00
36964;BME280;22878;48.616;35.326;2022-07-18T01:36:07;101232.83;;;13.61;100.00
36964;BME280;22878;48.616;35.326;2022-07-18T01:38:34;101224.44;;;13.60;100.00
36964;BME280;22878;48.616;35.326;2022-07-18T01:41:02;101222.82;;;13.59;100.00
36964;BME280;22878;48.616;35.326;2022-07-18T01:43:28;101222.26;;;13.57;100.00
36964;BME280;22878;48.616;35.326;2022-07-18T01:45:54;101221.97;;;13.56;100.00
36964;BME280;22878;48.616;35.326;2022-07-18T01:48:21;101220.34;;;13.55;100.00
36964;BME280;22878;48.616;35.326;2022-07-18T01:50:51;101219.78;;;13.53;100.00
36964;BME280;22878;48.616;35.326;2022-07-18T01:53:18;101225.48;;;13.51;100.00
36964;BME280;22878;48.616;35.326;2022-07-18T01:55:44;101233.06;;;13.52;100.00
36964;BME280;22878;48.616;35.326;2022-07-18T01:58:10;101229.55;;;13.51;100.00
36964;BME280;22878;48.616;35.326;2022-07-18T02:00:36;101233.06;;;13.52;100.00
36964;BME280;22878;48.616;35.326;2022-07-18T02:03:02;101233.06;;;13.52;100.00
36964;BME280;22878;48.616;35.326;2022-07-18T02:05:28;101232.23;;;13.49;100.00
36964;BME280;22878;48.616;35.326;2022-07-18T02:07:54;101230.34;;;13.49;100.00
36964;BME280;22878;48.616;35.326;2022-07-18T02:10:21;101231.98;;;13.50;100.00
36964;BME280;22878;48.616;35.326;2022-07-18T02:12:48;101233.61;;;13.51;100.00
36964;BME280;22878;48.616;35.326;2022-07-18T02:15:14;101230.91;;;13.54;100.00
36964;BME280;22878;48.616;35.326;2022-07-18T02:17:43;101237.16;;;13.57;100.00
36964;BME280;22878;48.616;35.326;2022-07-18T02:20:11;101233.91;;;13.60;100.00
36964;BME280;22878;48.616;35.326;2022-07-18T02:22:39;101229.58;;;13.61;100.00
36964;BME280;22878;48.616;35.326;2022-07-18T02:25:06;101227.98;;;13.66;100.00
36964;BME280;22878;48.616;35.326;2022-07-18T02:27:33;101236.39;;;13.69;100.00
36964;BME280;22878;48.616;35.326;2022-07-18T02:29:59;101234.24;;;13.71;100.00
36964;BME280;22878;48.616;35.326;2022-07-18T02:32:25;101236.14;;;13.76;100.00
36964;BME280;22878;48.616;35.326;2022-07-18T02:34:51;101236.16;;;13.78;100.00
36964;BME280;22878;48.616;35.326;2022-07-18T02:37:17;101229.95;;;13.83;100.00
36964;BME280;22878;48.616;35.326;2022-07-18T02:39:43;101231.30;;;13.88;100.00
36964;BME280;22878;48.616;35.326;2022-07-18T02:42:09;101238.38;;;13.97;100.00
36964;BME280;22878;48.616;35.326;2022-07-18T02:44:36;101240.57;;;14.05;100.00
36964;BME280;22878;48.616;35.326;2022-07-18T02:47:02;101239.50;;;14.11;100.00
36964;BME280;22878;48.616;35.326;2022-07-18T02:49:29;101243.31;;;14.20;100.00
36964;BME280;22878;48.616;35.326;2022-07-18T02:52:03;101244.14;;;14.28;100.00
36964;BME280;22878;48.616;35.326;2022-07-18T02:54:33;101250.66;;;14.38;100.00
36964;BME280;22878;48.616;35.326;2022-07-18T02:56:59;101244.17;;;14.49;100.00
36964;BME280;22878;48.616;35.326;2022-07-18T02:59:26;101245.30;;;14.61;100.00
36964;BME280;22878;48.616;35.326;2022-07-18T03:01:53;101248.55;;;14.70;100.00
36964;BME280;22878;48.616;35.326;2022-07-18T03:04:20;101251.28;;;14.81;100.00
36964;BME280;22878;48.616;35.326;2022-07-18T03:06:47;101249.09;;;14.90;100.00
36964;BME280;22878;48.616;35.326;2022-07-18T03:09:15;101248.29;;;14.97;100.00
36964;BME280;22878;48.616;35.326;2022-07-18T03:11:42;101247.16;;;15.09;100.00
36964;BME280;22878;48.616;35.326;2022-07-18T03:14:08;101249.08;;;15.18;100.00
36964;BME280;22878;48.616;35.326;2022-07-18T03:16:35;101243.89;;;15.27;100.00
36964;BME280;22878;48.616;35.326;2022-07-18T03:19:02;101244.41;;;15.37;100.00
36964;BME280;22878;48.616;35.326;2022-07-18T03:21:28;101247.92;;;15.45;100.00
36964;BME280;22878;48.616;35.326;2022-07-18T03:23:55;101250.59;;;15.55;100.00
36964;BME280;22878;48.616;35.326;2022-07-18T03:26:21;101255.98;;;15.76;100.00
36964;BME280;22878;48.616;35.326;2022-07-18T03:28:48;101240.48;;;16.28;100.00
36964;BME280;22878;48.616;35.326;2022-07-18T03:31:14;101253.14;;;17.14;100.00
36964;BME280;22878;48.616;35.326;2022-07-18T03:33:40;101246.55;;;17.92;100.00
36964;BME280;22878;48.616;35.326;2022-07-18T03:36:06;101251.16;;;18.51;100.00
36964;BME280;22878;48.616;35.326;2022-07-18T03:38:32;101247.91;;;19.15;100.00
36964;BME280;22878;48.616;35.326;2022-07-18T03:40:58;101248.92;;;19.63;100.00
36964;BME280;22878;48.616;35.326;2022-07-18T03:43:24;101248.46;;;20.11;100.00
36964;BME280;22878;48.616;35.326;2022-07-18T03:45:50;101244.13;;;20.69;100.00
36964;BME280;22878;48.616;35.326;2022-07-18T03:48:16;101241.88;;;21.13;100.00
36964;BME280;22878;48.616;35.326;2022-07-18T03:50:42;101234.36;;;21.67;100.00
36964;BME280;22878;48.616;35.326;2022-07-18T03:53:08;101233.70;;;22.16;100.00
36964;BME280;22878;48.616;35.326;2022-07-18T03:55:35;101235.11;;;22.51;100.00
36964;BME280;22878;48.616;35.326;2022-07-18T03:58:00;101243.01;;;22.94;100.00
36964;BME280;22878;48.616;35.326;2022-07-18T04:00:26;101232.69;;;23.38;100.00
36964;BME280;22878;48.616;35.326;2022-07-18T04:02:52;101239.59;;;23.82;100.00
36964;BME280;22878;48.616;35.326;2022-07-18T04:05:18;101247.41;;;24.22;97.24
36964;BME280;22878;48.616;35.326;2022-07-18T04:07:45;101259.31;;;24.62;93.25
36964;BME280;22878;48.616;35.326;2022-07-18T04:10:11;101261.10;;;24.79;89.84
36964;BME280;22878;48.616;35.326;2022-07-18T04:12:46;101266.66;;;25.30;86.13
36964;BME280;22878;48.616;35.326;2022-07-18T04:15:18;101263.56;;;25.50;82.64
36964;BME280;22878;48.616;35.326;2022-07-18T04:17:46;101264.25;;;25.66;78.58
36964;BME280;22878;48.616;35.326;2022-07-18T04:20:14;101268.01;;;25.79;75.71
36964;BME280;22878;48.616;35.326;2022-07-18T04:22:46;101273.12;;;25.83;74.71
36964;BME280;22878;48.616;35.326;2022-07-18T04:25:17;101260.66;;;26.02;72.27
36964;BME280;22878;48.616;35.326;2022-07-18T04:27:45;101261.77;;;26.19;70.69
36964;BME280;22878;48.616;35.326;2022-07-18T04:30:13;101262.34;;;26.53;68.34
36964;BME280;22878;48.616;35.326;2022-07-18T04:32:40;101256.08;;;26.68;66.31
36964;BME280;22878;48.616;35.326;2022-07-18T04:35:08;101260.88;;;26.93;65.10
36964;BME280;22878;48.616;35.326;2022-07-18T04:37:34;101259.42;;;27.06;64.70
36964;BME280;22878;48.616;35.326;2022-07-18T04:40:01;101262.00;;;27.21;62.07
36964;BME280;22878;48.616;35.326;2022-07-18T04:42:27;101261.91;;;27.49;62.38
36964;BME280;22878;48.616;35.326;2022-07-18T04:44:55;101258.34;;;27.90;59.87
36964;BME280;22878;48.616;35.326;2022-07-18T04:47:22;101262.53;;;28.09;59.10
36964;BME280;22878;48.616;35.326;2022-07-18T04:49:48;101261.59;;;28.30;57.53
36964;BME280;22878;48.616;35.326;2022-07-18T04:52:17;101252.91;;;28.71;56.72
36964;BME280;22878;48.616;35.326;2022-07-18T04:54:43;101260.52;;;29.07;54.95
36964;BME280;22878;48.616;35.326;2022-07-18T04:57:10;101262.70;;;29.43;54.65
36964;BME280;22878;48.616;35.326;2022-07-18T04:59:38;101272.01;;;29.55;52.85
36964;BME280;22878;48.616;35.326;2022-07-18T05:02:04;101267.45;;;29.66;51.53
36964;BME280;22878;48.616;35.326;2022-07-18T05:04:30;101266.84;;;29.93;50.58
36964;BME280;22878;48.616;35.326;2022-07-18T05:06:56;101271.52;;;30.16;50.11
36964;BME280;22878;48.616;35.326;2022-07-18T05:09:22;101269.30;;;30.42;49.76
36964;BME280;22878;48.616;35.326;2022-07-18T05:11:48;101262.07;;;30.71;49.22
36964;BME280;22878;48.616;35.326;2022-07-18T05:14:14;101264.78;;;31.01;48.06
36964;BME280;22878;48.616;35.326;2022-07-18T05:16:41;101270.30;;;31.18;47.08
36964;BME280;22878;48.616;35.326;2022-07-18T05:19:07;101266.96;;;31.46;45.38
36964;BME280;22878;48.616;35.326;2022-07-18T05:21:33;101265.98;;;31.48;45.39
36964;BME280;22878;48.616;35.326;2022-07-18T05:23:59;101271.53;;;31.76;45.02
36964;BME280;22878;48.616;35.326;2022-07-18T05:26:25;101269.58;;;32.15;43.27
36964;BME280;22878;48.616;35.326;2022-07-18T05:28:51;101268.30;;;32.43;43.43
36964;BME280;22878;48.616;35.326;2022-07-18T05:31:17;101267.02;;;32.75;41.84
36964;BME280;22878;48.616;35.326;2022-07-18T05:33:43;101264.83;;;32.82;41.02
36964;BME280;22878;48.616;35.326;2022-07-18T05:36:09;101272.69;;;33.22;40.37
36964;BME280;22878;48.616;35.326;2022-07-18T05:38:36;101271.50;;;33.30;39.95
36964;BME280;22878;48.616;35.326;2022-07-18T05:41:02;101268.69;;;33.66;39.11
36964;BME280;22878;48.616;35.326;2022-07-18T05:43:28;101269.78;;;34.08;37.83
36964;BME280;22878;48.616;35.326;2022-07-18T05:45:54;101268.39;;;34.08;36.95
36964;BME280;22878;48.616;35.326;2022-07-18T05:48:20;101268.55;;;34.20;36.60
36964;BME280;22878;48.616;35.326;2022-07-18T05:50:46;101265.33;;;34.25;36.42
36964;BME280;22878;48.616;35.326;2022-07-18T05:53:12;101263.81;;;34.46;35.27
36964;BME280;22878;48.616;35.326;2022-07-18T05:55:39;101265.69;;;34.74;35.52
36964;BME280;22878;48.616;35.326;2022-07-18T05:58:05;101248.56;;;35.17;34.62
36964;BME280;22878;48.616;35.326;2022-07-18T06:00:31;101248.56;;;35.17;34.62
36964;BME280;22878;48.616;35.326;2022-07-18T06:02:57;101244.75;;;35.42;33.58
36964;BME280;22878;48.616;35.326;2022-07-18T06:05:23;101256.27;;;35.55;33.23
36964;BME280;22878;48.616;35.326;2022-07-18T06:07:49;101257.47;;;35.73;32.43
36964;BME280;22878;48.616;35.326;2022-07-18T06:10:16;101260.75;;;36.02;31.95
36964;BME280;22878;48.616;35.326;2022-07-18T06:12:42;101259.04;;;36.27;31.40
36964;BME280;22878;48.616;35.326;2022-07-18T06:15:08;101260.25;;;36.41;31.48
36964;BME280;22878;48.616;35.326;2022-07-18T06:17:36;101254.53;;;36.52;31.41
36964;BME280;22878;48.616;35.326;2022-07-18T06:20:03;101253.23;;;36.72;30.27
36964;BME280;22878;48.616;35.326;2022-07-18T06:22:30;101251.00;;;36.29;30.54
36964;BME280;22878;48.616;35.326;2022-07-18T06:24:56;101247.69;;;36.22;30.26
36964;BME280;22878;48.616;35.326;2022-07-18T06:27:22;101246.71;;;36.36;30.31
36964;BME280;22878;48.616;35.326;2022-07-18T06:29:48;101250.70;;;36.54;30.11
36964;BME280;22878;48.616;35.326;2022-07-18T06:32:14;101244.21;;;36.84;29.82
36964;BME280;22878;48.616;35.326;2022-07-18T06:34:40;101241.13;;;37.25;30.10
36964;BME280;22878;48.616;35.326;2022-07-18T06:37:06;101253.47;;;37.32;29.68
36964;BME280;22878;48.616;35.326;2022-07-18T06:39:32;101248.34;;;37.15;28.74
36964;BME280;22878;48.616;35.326;2022-07-18T06:41:58;101254.08;;;35.51;28.52
36964;BME280;22878;48.616;35.326;2022-07-18T06:44:25;101254.08;;;35.51;28.52
36964;BME280;22878;48.616;35.326;2022-07-18T06:46:51;101262.00;;;34.85;29.78
36964;BME280;22878;48.616;35.326;2022-07-18T06:49:18;101266.84;;;34.80;29.43
36964;BME280;22878;48.616;35.326;2022-07-18T06:51:45;101265.11;;;35.27;29.89
36964;BME280;22878;48.616;35.326;2022-07-18T06:54:11;101268.13;;;36.07;28.86
36964;BME280;22878;48.616;35.326;2022-07-18T06:56:37;101259.81;;;36.15;28.26
36964;BME280;22878;48.616;35.326;2022-07-18T06:59:03;101266.17;;;36.66;28.25
36964;BME280;22878;48.616;35.326;2022-07-18T07:01:29;101257.20;;;37.37;27.43
36964;BME280;22878;48.616;35.326;2022-07-18T07:03:55;101257.25;;;37.68;26.99
36964;BME280;22878;48.616;35.326;2022-07-18T07:06:21;101257.59;;;37.70;26.73
36964;BME280;22878;48.616;35.326;2022-07-18T07:08:47;101264.61;;;37.39;26.50
36964;BME280;22878;48.616;35.326;2022-07-18T07:11:13;101265.20;;;37.26;26.73
36964;BME280;22878;48.616;35.326;2022-07-18T07:13:39;101265.73;;;37.65;25.89
36964;BME280;22878;48.616;35.326;2022-07-18T07:16:05;101265.55;;;37.76;25.34
36964;BME280;22878;48.616;35.326;2022-07-18T07:18:32;101266.33;;;37.76;25.79
36964;BME280;22878;48.616;35.326;2022-07-18T07:20:58;101275.52;;;38.20;25.21
36964;BME280;22878;48.616;35.326;2022-07-18T07:23:25;101275.48;;;38.12;24.97
36964;BME280;22878;48.616;35.326;2022-07-18T07:25:51;101273.26;;;37.91;25.20
36964;BME280;22878;48.616;35.326;2022-07-18T07:28:17;101273.23;;;37.95;25.07
36964;BME280;22878;48.616;35.326;2022-07-18T07:30:44;101286.36;;;38.22;25.80
36964;BME280;22878;48.616;35.326;2022-07-18T07:33:10;101281.98;;;38.65;25.48
36964;BME280;22878;48.616;35.326;2022-07-18T07:35:36;101277.78;;;38.73;24.91
36964;BME280;22878;48.616;35.326;2022-07-18T07:38:02;101278.34;;;39.17;24.75
36964;BME280;22878;48.616;35.326;2022-07-18T07:40:29;101281.38;;;39.64;24.29
36964;BME280;22878;48.616;35.326;2022-07-18T07:43:10;101283.20;;;39.17;23.54
36964;BME280;22878;48.616;35.326;2022-07-18T07:45:38;101288.16;;;38.12;25.15
36964;BME280;22878;48.616;35.326;2022-07-18T07:48:05;101289.77;;;38.13;24.26
36964;BME280;22878;48.616;35.326;2022-07-18T07:50:32;101290.05;;;37.87;24.66
36964;BME280;22878;48.616;35.326;2022-07-18T07:52:59;101279.00;;;37.76;24.75
36964;BME280;22878;48.616;35.326;2022-07-18T07:55:26;101287.83;;;37.43;24.30
36964;BME280;22878;48.616;35.326;2022-07-18T07:57:54;101286.48;;;37.39;24.51
36964;BME280;22878;48.616;35.326;2022-07-18T08:00:21;101288.39;;;37.58;24.63
36964;BME280;22878;48.616;35.326;2022-07-18T08:02:52;101292.45;;;38.08;24.23
36964;BME280;22878;48.616;35.326;2022-07-18T08:05:23;101290.59;;;38.30;24.19
36964;BME280;22878;48.616;35.326;2022-07-18T08:07:50;101299.86;;;38.58;23.56
36964;BME280;22878;48.616;35.326;2022-07-18T08:10:17;101290.80;;;39.03;23.36
36964;BME280;22878;48.616;35.326;2022-07-18T08:12:44;101292.38;;;39.04;23.02
36964;BME280;22878;48.616;35.326;2022-07-18T08:15:10;101291.84;;;38.65;23.02
36964;BME280;22878;48.616;35.326;2022-07-18T08:17:37;101291.79;;;38.69;22.63
36964;BME280;22878;48.616;35.326;2022-07-18T08:20:06;101283.59;;;38.66;22.64
36964;BME280;22878;48.616;35.326;2022-07-18T08:22:32;101287.77;;;38.22;22.67
36964;BME280;22878;48.616;35.326;2022-07-18T08:25:01;101279.33;;;38.02;23.16
36964;BME280;22878;48.616;35.326;2022-07-18T08:27:28;101282.89;;;38.14;22.75
36964;BME280;22878;48.616;35.326;2022-07-18T08:29:54;101290.43;;;38.09;22.76
36964;BME280;22878;48.616;35.326;2022-07-18T08:32:20;101284.70;;;38.24;23.08
36964;BME280;22878;48.616;35.326;2022-07-18T08:34:46;101284.53;;;38.51;23.15
36964;BME280;22878;48.616;35.326;2022-07-18T08:37:12;101266.87;;;38.11;22.69
36964;BME280;22878;48.616;35.326;2022-07-18T08:39:39;101288.53;;;37.50;23.71
36964;BME280;22878;48.616;35.326;2022-07-18T08:42:06;101288.84;;;37.76;23.39
36964;BME280;22878;48.616;35.326;2022-07-18T08:44:34;101285.70;;;38.14;23.43
36964;BME280;22878;48.616;35.326;2022-07-18T08:47:02;101289.55;;;38.04;23.02
36964;BME280;22878;48.616;35.326;2022-07-18T08:49:29;101291.30;;;38.06;23.06
36964;BME280;22878;48.616;35.326;2022-07-18T08:51:56;101287.85;;;37.98;23.63
36964;BME280;22878;48.616;35.326;2022-07-18T08:54:22;101284.27;;;38.06;23.44
36964;BME280;22878;48.616;35.326;2022-07-18T08:56:49;101290.87;;;36.78;23.03
36964;BME280;22878;48.616;35.326;2022-07-18T08:59:15;101283.05;;;36.77;24.23
36964;BME280;22878;48.616;35.326;2022-07-18T09:01:41;101286.19;;;37.22;22.93
36964;BME280;22878;48.616;35.326;2022-07-18T09:04:07;101293.34;;;37.50;22.69
36964;BME280;22878;48.616;35.326;2022-07-18T09:06:47;101294.37;;;37.24;22.82
36964;BME280;22878;48.616;35.326;2022-07-18T09:09:15;101296.77;;;36.26;23.63
36964;BME280;22878;48.616;35.326;2022-07-18T09:11:55;101298.78;;;35.87;23.72
36964;BME280;22878;48.616;35.326;2022-07-18T09:14:33;101290.46;;;35.80;24.40
36964;BME280;22878;48.616;35.326;2022-07-18T09:17:04;101292.31;;;35.75;24.12
36964;BME280;22878;48.616;35.326;2022-07-18T09:19:32;101294.39;;;35.41;24.59
36964;BME280;22878;48.616;35.326;2022-07-18T09:22:20;101281.70;;;35.75;24.27
36964;BME280;22878;48.616;35.326;2022-07-18T09:27:36;101283.52;;;36.26;24.47
36964;BME280;22878;48.616;35.326;2022-07-18T09:32:46;101290.03;;;35.63;24.29
36964;BME280;22878;48.616;35.326;2022-07-18T09:35:19;101296.14;;;35.51;24.28
36964;BME280;22878;48.616;35.326;2022-07-18T09:37:58;101302.88;;;35.60;24.40
36964;BME280;22878;48.616;35.326;2022-07-18T09:40:34;101294.22;;;35.40;24.75
36964;BME280;22878;48.616;35.326;2022-07-18T09:43:02;101291.11;;;35.50;24.94
36964;BME280;22878;48.616;35.326;2022-07-18T09:45:35;101305.15;;;35.28;25.04
36964;BME280;22878;48.616;35.326;2022-07-18T09:48:09;101301.52;;;35.04;25.21
36964;BME280;22878;48.616;35.326;2022-07-18T09:50:51;101304.63;;;34.84;25.07
36964;BME280;22878;48.616;35.326;2022-07-18T09:53:29;101296.36;;;34.59;25.38
36964;BME280;22878;48.616;35.326;2022-07-18T09:56:07;101293.94;;;34.68;25.58
36964;BME280;22878;48.616;35.326;2022-07-18T09:58:38;101299.05;;;34.80;25.98
36964;BME280;22878;48.616;35.326;2022-07-18T10:01:10;101311.80;;;34.48;26.13
36964;BME280;22878;48.616;35.326;2022-07-18T10:03:37;101318.39;;;33.70;26.55
36964;BME280;22878;48.616;35.326;2022-07-18T10:06:04;101305.59;;;33.12;26.46
36964;BME280;22878;48.616;35.326;2022-07-18T10:08:32;101304.91;;;32.73;27.26
36964;BME280;22878;48.616;35.326;2022-07-18T10:11:01;101307.27;;;32.64;27.55
36964;BME280;22878;48.616;35.326;2022-07-18T10:13:30;101307.30;;;31.90;28.27
36964;BME280;22878;48.616;35.326;2022-07-18T10:15:58;101310.72;;;31.70;28.93
36964;BME280;22878;48.616;35.326;2022-07-18T10:18:27;101309.59;;;31.78;28.45
36964;BME280;22878;48.616;35.326;2022-07-18T10:23:47;101291.39;;;31.39;28.54
36964;BME280;22878;48.616;35.326;2022-07-18T10:26:24;101307.62;;;31.10;28.98
36964;BME280;22878;48.616;35.326;2022-07-18T10:31:33;101304.83;;;31.51;29.52
36964;BME280;22878;48.616;35.326;2022-07-18T10:34:11;101304.95;;;31.68;29.14
36964;BME280;22878;48.616;35.326;2022-07-18T10:39:35;101312.13;;;31.73;29.31
36964;BME280;22878;48.616;35.326;2022-07-18T10:44:39;101309.22;;;31.55;29.32
36964;BME280;22878;48.616;35.326;2022-07-18T10:49:59;101314.75;;;31.48;29.13
36964;BME280;22878;48.616;35.326;2022-07-18T11:00:08;101300.83;;;31.07;29.88
36964;BME280;22878;48.616;35.326;2022-07-18T11:02:46;101304.86;;;31.13;29.65
36964;BME280;22878;48.616;35.326;2022-07-18T11:08:15;101308.07;;;30.95;29.98
36964;BME280;22878;48.616;35.326;2022-07-18T11:16:10;101312.25;;;30.95;31.25
36964;BME280;22878;48.616;35.326;2022-07-18T11:21:28;101303.07;;;31.15;30.86
36964;BME280;22878;48.616;35.326;2022-07-18T11:26:37;101309.03;;;30.93;30.37
36964;BME280;22878;48.616;35.326;2022-07-18T11:31:55;101308.24;;;31.13;30.75
36964;BME280;22878;48.616;35.326;2022-07-18T11:34:24;101309.34;;;31.25;29.87
36964;BME280;22878;48.616;35.326;2022-07-18T11:36:50;101310.23;;;31.12;29.85
36964;BME280;22878;48.616;35.326;2022-07-18T11:39:31;101299.91;;;31.16;30.05
36964;BME280;22878;48.616;35.326;2022-07-18T11:41:58;101306.81;;;31.30;30.36
36964;BME280;22878;48.616;35.326;2022-07-18T11:44:24;101310.60;;;31.11;30.27
36964;BME280;22878;48.616;35.326;2022-07-18T11:47:05;101301.80;;;31.05;30.33
36964;BME280;22878;48.616;35.326;2022-07-18T11:49:33;101311.25;;;31.17;30.03
36964;BME280;22878;48.616;35.326;2022-07-18T11:52:00;101302.03;;;31.30;30.23
36964;BME280;22878;48.616;35.326;2022-07-18T11:54:26;101305.52;;;31.40;30.33
36964;BME280;22878;48.616;35.326;2022-07-18T11:56:55;101301.86;;;31.33;30.45
36964;BME280;22878;48.616;35.326;2022-07-18T11:59:22;101299.91;;;31.16;31.07
36964;BME280;22878;48.616;35.326;2022-07-18T12:01:48;101305.66;;;31.14;30.59
36964;BME280;22878;48.616;35.326;2022-07-18T12:04:19;101294.37;;;30.99;30.50
36964;BME280;22878;48.616;35.326;2022-07-18T12:09:39;101292.36;;;30.96;30.92
36964;BME280;22878;48.616;35.326;2022-07-18T12:12:12;101286.34;;;30.91;30.00
36964;BME280;22878;48.616;35.326;2022-07-18T12:14:40;101287.62;;;30.63;30.74
36964;BME280;22878;48.616;35.326;2022-07-18T12:17:06;101291.92;;;30.74;30.73
36964;BME280;22878;48.616;35.326;2022-07-18T12:19:34;101284.67;;;30.66;30.34
36964;BME280;22878;48.616;35.326;2022-07-18T12:24:52;101293.86;;;30.36;31.29
36964;BME280;22878;48.616;35.326;2022-07-18T12:27:34;101292.38;;;30.46;30.99
36964;BME280;22878;48.616;35.326;2022-07-18T12:30:18;101287.58;;;30.60;31.19
36964;BME280;22878;48.616;35.326;2022-07-18T12:32:46;101291.92;;;30.57;31.25
36964;BME280;22878;48.616;35.326;2022-07-18T12:35:25;101290.13;;;30.75;31.14
36964;BME280;22878;48.616;35.326;2022-07-18T12:37:59;101294.18;;;30.98;31.15
36964;BME280;22878;48.616;35.326;2022-07-18T12:40:49;101284.02;;;30.96;30.30
36964;BME280;22878;48.616;35.326;2022-07-18T12:43:29;101283.16;;;30.89;30.79
36964;BME280;22878;48.616;35.326;2022-07-18T12:45:58;101284.09;;;30.83;30.72
36964;BME280;22878;48.616;35.326;2022-07-18T12:48:27;101283.69;;;30.85;30.26
36964;BME280;22878;48.616;35.326;2022-07-18T12:50:56;101283.30;;;30.83;30.67
36964;BME280;22878;48.616;35.326;2022-07-18T12:53:25;101291.28;;;30.88;30.56
36964;BME280;22878;48.616;35.326;2022-07-18T12:55:53;101297.95;;;30.63;30.26
36964;BME280;22878;48.616;35.326;2022-07-18T12:58:20;101297.52;;;30.44;30.52
36964;BME280;22878;48.616;35.326;2022-07-18T13:00:46;101299.69;;;30.14;30.88
36964;BME280;22878;48.616;35.326;2022-07-18T13:03:13;101298.85;;;29.97;30.91
36964;BME280;22878;48.616;35.326;2022-07-18T13:05:40;101302.06;;;29.85;31.15
36964;BME280;22878;48.616;35.326;2022-07-18T13:08:07;101294.06;;;29.80;31.38
36964;BME280;22878;48.616;35.326;2022-07-18T13:10:35;101294.83;;;29.54;31.44
36964;BME280;22878;48.616;35.326;2022-07-18T13:13:03;101299.44;;;29.10;31.57
36964;BME280;22878;48.616;35.326;2022-07-18T13:15:31;101295.86;;;28.90;32.15
36964;BME280;22878;48.616;35.326;2022-07-18T13:17:57;101293.41;;;28.75;32.08
36964;BME280;22878;48.616;35.326;2022-07-18T13:20:24;101293.12;;;28.61;32.23
36964;BME280;22878;48.616;35.326;2022-07-18T13:22:51;101299.12;;;28.63;32.58
36964;BME280;22878;48.616;35.326;2022-07-18T13:25:18;101295.10;;;28.61;32.56
36964;BME280;22878;48.616;35.326;2022-07-18T13:27:46;101296.42;;;28.57;32.83
36964;BME280;22878;48.616;35.326;2022-07-18T13:30:13;101311.68;;;28.57;33.34